Time;durP1;ratioP1;P1;durP2;ratioP2;P2;SDS_P1;SDS_P2;PMS_P1;PMS_P2;Temp;Humidity;BMP_temperature;BMP_pressure;BME280_temperature;BME280_humidity;BME280_pressure;Samples;Min_cycle;Max_cycle;Signal;HPM_P1;HPM_P2
2022/08/03 00:04:20;;;;;;;4.78;2.80;;;;;;;;;;10212762;28;20452;-67
2022/08/03 00:09:30;;;;;;;6.32;3.22;;;;;;;;;;10215663;28;20046;-66
2022/08/03 00:14:31;;;;;;;5.72;2.95;;;;;;;;;;10213594;28;20060;-67
2022/08/03 00:19:27;;;;;;;10.93;3.75;;;;;;;;;;10210435;28;20998;-66
2022/08/03 00:24:23;;;;;;;5.55;3.13;;;;;;;;;;10208627;28;20073;-66
2022/08/03 00:29:20;;;;;;;6.07;2.67;;;;;;;;;;10216559;28;20050;-65
2022/08/03 00:34:16;;;;;;;5.32;3.05;;;;;;;;;;10223396;28;20055;-66
2022/08/03 00:39:29;;;;;;;6.25;3.03;;;;;;;;;;10217289;28;20046;-66
2022/08/03 00:44:26;;;;;;;4.88;2.88;;;;;;;;;;10220475;28;20041;-66
2022/08/03 00:49:23;;;;;;;5.20;3.25;;;;;;;;;;10207742;28;20840;-66
2022/08/03 00:54:19;;;;;;;8.27;3.28;;;;;;;;;;10214997;28;20509;-68
2022/08/03 00:59:17;;;;;;;6.25;3.20;;;;;;;;;;10204932;28;20133;-69
2022/08/03 01:04:13;;;;;;;5.00;2.75;;;;;;;;;;10203121;28;20410;-67
2022/08/03 01:09:20;;;;;;;4.35;2.60;;;;;;;;;;10210007;28;20560;-68
2022/08/03 01:14:38;;;;;;;4.55;2.88;;;;;;;;;;10205840;28;20687;-68
2022/08/03 01:19:53;;;;;;;4.97;3.17;;;;;;;;;;10190220;28;20038;-67
2022/08/03 01:24:55;;;;;;;5.97;3.47;;;;;;;;;;10214738;28;20671;-68
2022/08/03 01:29:57;;;;;;;10.35;4.80;;;;;;;;;;10209783;28;20072;-67
2022/08/03 01:34:53;;;;;;;;;;;;;;;;;;10207601;28;20046;-67
2022/08/03 01:39:50;;;;;;;6.25;3.95;;;;;;;;;;10213605;28;19968;-68
2022/08/03 01:44:49;;;;;;;5.53;3.92;;;;;;;;;;10220444;28;20087;-67
2022/08/03 01:49:46;;;;;;;5.65;3.30;;;;;;;;;;10222696;28;20053;-67
2022/08/03 01:54:45;;;;;;;5.35;3.00;;;;;;;;;;10220444;28;20052;-68
2022/08/03 01:59:44;;;;;;;5.45;2.97;;;;;;;;;;10221295;28;20128;-67
2022/08/03 02:04:42;;;;;;;5.85;3.67;;;;;;;;;;10208879;28;20065;-67
2022/08/03 02:09:40;;;;;;;8.25;4.03;;;;;;;;;;10220356;28;20188;-67
2022/08/03 02:14:38;;;;;;;6.35;3.53;;;;;;;;;;10216855;28;20057;-67
2022/08/03 02:19:34;;;;;;;6.88;3.65;;;;;;;;;;10216972;28;20128;-68
2022/08/03 02:24:31;;;;;;;10.82;4.38;;;;;;;;;;10217971;28;20100;-67
2022/08/03 02:29:30;;;;;;;5.05;3.08;;;;;;;;;;10212572;28;20541;-68
2022/08/03 02:34:36;;;;;;;4.63;3.45;;;;;;;;;;10209853;28;20042;-67
2022/08/03 02:39:34;;;;;;;4.43;3.30;;;;;;;;;;10214072;28;20094;-66
2022/08/03 02:44:32;;;;;;;9.13;3.75;;;;;;;;;;10224851;28;20107;-66
2022/08/03 02:49:28;;;;;;;7.72;3.42;;;;;;;;;;10220599;28;20080;-66
2022/08/03 02:54:45;;;;;;;7.93;3.17;;;;;;;;;;10219846;28;20124;-67
2022/08/03 02:59:43;;;;;;;5.65;3.40;;;;;;;;;;10210248;28;20077;-67
2022/08/03 03:04:40;;;;;;;5.78;3.40;;;;;;;;;;10210433;28;20096;-65
2022/08/03 03:09:57;;;;;;;6.03;3.50;;;;;;;;;;10210142;28;20641;-66
2022/08/03 03:14:53;;;;;;;4.80;3.28;;;;;;;;;;10210376;28;20068;-66
2022/08/03 03:19:50;;;;;;;7.28;3.75;;;;;;;;;;10212976;28;20497;-66
2022/08/03 03:24:47;;;;;;;5.82;3.65;;;;;;;;;;10210132;28;20461;-67
2022/08/03 03:29:47;;;;;;;7.80;3.55;;;;;;;;;;10212208;28;20061;-66
2022/08/03 03:34:44;;;;;;;5.95;3.38;;;;;;;;;;10201932;28;20285;-68
2022/08/03 03:39:41;;;;;;;5.30;3.10;;;;;;;;;;10212015;28;20059;-65
2022/08/03 03:44:37;;;;;;;6.88;3.60;;;;;;;;;;10206671;28;20045;-64
2022/08/03 03:49:35;;;;;;;4.85;3.33;;;;;;;;;;10201734;28;20045;-65
2022/08/03 03:54:38;;;;;;;7.07;4.22;;;;;;;;;;10197468;28;20045;-65
2022/08/03 03:59:38;;;;;;;9.90;3.83;;;;;;;;;;10196461;28;20049;-65
2022/08/03 04:15:10;;;;;;;8.10;3.58;;;;;;;;;;10193089;28;20811;-65
2022/08/03 04:20:08;;;;;;;7.20;3.67;;;;;;;;;;10194587;28;20064;-65
2022/08/03 04:25:08;;;;;;;6.75;4.03;;;;;;;;;;10201486;28;20064;-65
2022/08/03 04:30:05;;;;;;;6.78;4.13;;;;;;;;;;10199585;28;20487;-65
2022/08/03 04:35:02;;;;;;;8.95;3.95;;;;;;;;;;10161436;28;20045;-65
2022/08/03 04:40:00;;;;;;;11.68;4.57;;;;;;;;;;10207859;28;20057;-67
2022/08/03 04:44:57;;;;;;;6.80;3.95;;;;;;;;;;10197813;28;20053;-67
2022/08/03 04:49:57;;;;;;;8.50;3.97;;;;;;;;;;10203362;28;20056;-66
2022/08/03 04:54:53;;;;;;;5.07;3.60;;;;;;;;;;10187837;28;20041;-65
2022/08/03 04:59:53;;;;;;;8.90;4.68;;;;;;;;;;10148986;28;20072;-65
2022/08/03 05:04:57;;;;;;;7.75;3.80;;;;;;;;;;10195971;28;20038;-67
2022/08/03 05:09:54;;;;;;;5.65;4.07;;;;;;;;;;10195978;28;20048;-66
2022/08/03 05:14:58;;;;;;;6.50;4.05;;;;;;;;;;10194321;28;20092;-67
2022/08/03 05:19:55;;;;;;;5.82;4.20;;;;;;;;;;10186409;28;20072;-68
2022/08/03 05:24:51;;;;;;;7.65;4.80;;;;;;;;;;10194272;28;20456;-68
2022/08/03 05:29:49;;;;;;;7.80;4.18;;;;;;;;;;10195913;28;20136;-68
2022/08/03 05:34:45;;;;;;;10.95;5.05;;;;;;;;;;10199863;28;20045;-68
2022/08/03 05:39:42;;;;;;;10.80;6.05;;;;;;;;;;10203521;28;20045;-69
2022/08/03 05:44:38;;;;;;;9.05;4.90;;;;;;;;;;10203004;28;20582;-68
2022/08/03 05:49:35;;;;;;;10.13;5.00;;;;;;;;;;10201866;28;20116;-68
2022/08/03 05:54:31;;;;;;;8.18;4.50;;;;;;;;;;10200321;28;20128;-68
2022/08/03 05:59:48;;;;;;;7.18;4.43;;;;;;;;;;10195706;28;20039;-68
2022/08/03 06:04:54;;;;;;;7.65;4.85;;;;;;;;;;10197920;28;20616;-68
2022/08/03 06:09:50;;;;;;;16.42;4.75;;;;;;;;;;10197406;28;20050;-68
2022/08/03 06:15:07;;;;;;;6.55;4.07;;;;;;;;;;10201266;28;20061;-68
2022/08/03 06:20:07;;;;;;;8.18;4.18;;;;;;;;;;10195881;28;20409;-68
2022/08/03 06:25:05;;;;;;;9.77;4.20;;;;;;;;;;10199203;28;20425;-68
2022/08/03 06:30:09;;;;;;;6.97;4.20;;;;;;;;;;10202103;28;20053;-68
2022/08/03 06:35:06;;;;;;;10.30;4.50;;;;;;;;;;10208815;28;20057;-68
2022/08/03 06:40:03;;;;;;;8.68;4.38;;;;;;;;;;10233910;28;20502;-68
2022/08/03 06:45:00;;;;;;;6.78;3.78;;;;;;;;;;10204654;28;20060;-68
2022/08/03 06:49:56;;;;;;;8.35;4.00;;;;;;;;;;10191774;28;20069;-68
2022/08/03 06:55:13;;;;;;;6.25;3.78;;;;;;;;;;10204019;28;20067;-68
2022/08/03 07:00:10;;;;;;;6.55;3.60;;;;;;;;;;10199905;28;20054;-69
2022/08/03 07:05:08;;;;;;;7.20;3.63;;;;;;;;;;10199352;28;20046;-69
2022/08/03 07:10:06;;;;;;;5.22;2.75;;;;;;;;;;10205298;28;20045;-69
2022/08/03 07:15:03;;;;;;;6.35;2.97;;;;;;;;;;10196344;28;20605;-69
2022/08/03 07:20:01;;;;;;;6.78;3.42;;;;;;;;;;10198098;28;20497;-69
2022/08/03 07:24:57;;;;;;;6.68;3.00;;;;;;;;;;10194994;28;20046;-69
2022/08/03 07:29:54;;;;;;;6.63;2.85;;;;;;;;;;10227023;28;20053;-69
2022/08/03 07:34:51;;;;;;;5.75;2.72;;;;;;;;;;10200454;28;20064;-69
2022/08/03 07:39:52;;;;;;;5.13;2.70;;;;;;;;;;10199146;28;21528;-69
2022/08/03 07:44:49;;;;;;;5.70;2.70;;;;;;;;;;10210455;28;20441;-69
2022/08/03 07:49:45;;;;;;;6.22;2.80;;;;;;;;;;10232172;28;20050;-69
2022/08/03 07:54:42;;;;;;;5.55;2.13;;;;;;;;;;10202664;28;20046;-69
2022/08/03 07:59:38;;;;;;;6.30;2.30;;;;;;;;;;10207702;28;20076;-70
2022/08/03 08:04:55;;;;;;;6.22;2.30;;;;;;;;;;10198779;28;20224;-69
2022/08/03 08:09:51;;;;;;;5.72;2.38;;;;;;;;;;10202013;28;20048;-69
2022/08/03 08:14:48;;;;;;;3.95;1.92;;;;;;;;;;10195834;28;20141;-69
2022/08/03 08:19:44;;;;;;;3.58;2.33;;;;;;;;;;10199230;28;20038;-69
2022/08/03 08:24:47;;;;;;;7.70;3.15;;;;;;;;;;10200697;28;20045;-69
2022/08/03 08:29:46;;;;;;;6.65;2.38;;;;;;;;;;10199161;28;20057;-71
2022/08/03 08:34:52;;;;;;;6.40;2.60;;;;;;;;;;10203081;28;20183;-69
2022/08/03 08:39:48;;;;;;;5.03;2.35;;;;;;;;;;10197879;28;20042;-69
2022/08/03 08:44:44;;;;;;;3.42;2.20;;;;;;;;;;10216856;28;20042;-70
2022/08/03 08:49:41;;;;;;;5.35;2.30;;;;;;;;;;10241837;28;20053;-70
2022/08/03 08:54:58;;;;;;;6.63;2.50;;;;;;;;;;10210314;28;20050;-69
2022/08/03 09:00:00;;;;;;;7.53;2.60;;;;;;;;;;10208011;28;20076;-70
2022/08/03 09:05:00;;;;;;;7.82;3.45;;;;;;;;;;10202807;28;20132;-68
2022/08/03 09:10:03;;;;;;;7.60;2.80;;;;;;;;;;10189277;28;20046;-68
2022/08/03 09:15:19;;;;;;;11.30;2.78;;;;;;;;;;10188997;28;20505;-68
2022/08/03 09:20:15;;;;;;;7.47;3.35;;;;;;;;;;10198938;28;20048;-69
2022/08/03 09:25:12;;;;;;;5.13;2.30;;;;;;;;;;10197357;28;20064;-70
2022/08/03 09:30:24;;;;;;;6.75;3.10;;;;;;;;;;10197737;28;20511;-69
2022/08/03 09:35:30;;;;;;;5.50;2.50;;;;;;;;;;10191011;28;20041;-69
2022/08/03 09:40:46;;;;;;;7.63;2.90;;;;;;;;;;10199080;28;20420;-69
2022/08/03 09:45:45;;;;;;;5.80;2.78;;;;;;;;;;10196962;28;20080;-69
2022/08/03 09:50:48;;;;;;;4.68;2.70;;;;;;;;;;10198525;28;20104;-70
2022/08/03 09:55:55;;;;;;;7.88;3.17;;;;;;;;;;10197318;28;20453;-69
2022/08/03 10:01:12;;;;;;;6.80;3.30;;;;;;;;;;10198226;28;20136;-70
2022/08/03 10:06:21;;;;;;;8.05;3.20;;;;;;;;;;10213974;28;20515;-70
2022/08/03 10:11:31;;;;;;;6.00;3.55;;;;;;;;;;10205860;28;20069;-70
2022/08/03 10:16:37;;;;;;;5.72;3.00;;;;;;;;;;10195372;28;20041;-70
2022/08/03 10:21:34;;;;;;;5.70;3.83;;;;;;;;;;10198932;28;20045;-70
2022/08/03 10:26:32;;;;;;;5.15;4.35;;;;;;;;;;10206785;28;20432;-69
2022/08/03 10:31:39;;;;;;;6.85;4.95;;;;;;;;;;10210848;28;20037;-70
2022/08/03 10:36:56;;;;;;;6.63;5.90;;;;;;;;;;10198865;28;20100;-69
2022/08/03 10:41:54;;;;;;;11.18;7.18;;;;;;;;;;10197336;28;20681;-69
2022/08/03 10:46:51;;;;;;;8.05;6.97;;;;;;;;;;10197944;28;20505;-70
2022/08/03 10:51:48;;;;;;;8.98;7.47;;;;;;;;;;10196493;28;20056;-70
2022/08/03 11:02:11;;;;;;;9.38;8.48;;;;;;;;;;10194517;28;20041;-69
2022/08/03 11:07:20;;;;;;;9.10;8.30;;;;;;;;;;10203900;28;20053;-69
2022/08/03 11:12:31;;;;;;;9.52;8.82;;;;;;;;;;10201069;28;20150;-69
2022/08/03 11:17:29;;;;;;;8.73;7.93;;;;;;;;;;10204810;28;20042;-69
2022/08/03 11:22:45;;;;;;;8.45;7.75;;;;;;;;;;10197686;28;21196;-67
2022/08/03 11:27:42;;;;;;;9.00;8.30;;;;;;;;;;10201051;28;20532;-66
2022/08/03 11:32:46;;;;;;;9.48;8.50;;;;;;;;;;10215380;28;20048;-66
2022/08/03 11:37:53;;;;;;;8.55;7.82;;;;;;;;;;10212125;28;20084;-69
2022/08/03 11:43:01;;;;;;;8.80;7.85;;;;;;;;;;10200737;28;20046;-70
2022/08/03 11:47:58;;;;;;;10.27;8.40;;;;;;;;;;10214703;28;20042;-70
2022/08/03 11:52:55;;;;;;;7.88;7.15;;;;;;;;;;10209779;28;20433;-70
2022/08/03 11:57:57;;;;;;;8.68;7.68;;;;;;;;;;10200840;28;20054;-70
2022/08/03 12:03:13;;;;;;;;;;;;;;;;;;10204907;28;20505;-70
2022/08/03 12:08:11;;;;;;;9.07;7.93;;;;;;;;;;10203595;28;20171;-69
2022/08/03 12:13:08;;;;;;;8.57;7.72;;;;;;;;;;10205242;28;20049;-70
2022/08/03 12:18:24;;;;;;;8.52;7.82;;;;;;;;;;10208966;28;20042;-69
2022/08/03 12:23:21;;;;;;;9.38;7.72;;;;;;;;;;10218393;28;20140;-70
2022/08/03 12:28:21;;;;;;;8.05;7.30;;;;;;;;;;10219891;28;20053;-70
2022/08/03 12:33:52;;;;;;;8.48;7.75;;;;;;;;;;10221402;28;20563;-70
2022/08/03 12:38:56;;;;;;;9.27;8.40;;;;;;;;;;10207298;28;20504;-70
2022/08/03 12:43:53;;;;;;;11.75;8.38;;;;;;;;;;10217042;28;20124;-70
2022/08/03 12:49:00;;;;;;;10.82;7.95;;;;;;;;;;10220841;28;20042;-70
2022/08/03 12:53:57;;;;;;;8.65;7.85;;;;;;;;;;10208108;28;20458;-70
2022/08/03 12:58:54;;;;;;;8.43;7.22;;;;;;;;;;10219946;28;20468;-68
2022/08/03 13:03:51;;;;;;;8.60;7.82;;;;;;;;;;10216631;28;20037;-67
2022/08/03 13:08:50;;;;;;;9.07;8.07;;;;;;;;;;10215582;28;20638;-67
2022/08/03 13:13:46;;;;;;;9.32;8.45;;;;;;;;;;10211963;28;20579;-68
2022/08/03 13:18:45;;;;;;;6.53;5.93;;;;;;;;;;10214818;28;20536;-70
2022/08/03 13:23:43;;;;;;;6.47;5.87;;;;;;;;;;10219967;28;20495;-70
2022/08/03 13:28:40;;;;;;;8.45;5.90;;;;;;;;;;10221234;28;20472;-70
2022/08/03 13:33:37;;;;;;;6.57;5.88;;;;;;;;;;10212253;28;20042;-70
2022/08/03 13:38:34;;;;;;;9.68;5.53;;;;;;;;;;10208832;28;20041;-69
2022/08/03 13:43:31;;;;;;;7.60;5.68;;;;;;;;;;10215515;28;20069;-69
2022/08/03 13:48:27;;;;;;;8.73;5.97;;;;;;;;;;10218483;28;20501;-71
2022/08/03 13:53:33;;;;;;;6.97;5.72;;;;;;;;;;10223464;28;20049;-70
2022/08/03 13:58:29;;;;;;;6.00;5.50;;;;;;;;;;10213752;28;20045;-66
2022/08/03 14:03:26;;;;;;;6.18;5.50;;;;;;;;;;10220865;28;20086;-67
2022/08/03 14:08:22;;;;;;;8.30;5.97;;;;;;;;;;10213711;28;20046;-67
2022/08/03 14:13:18;;;;;;;7.03;6.35;;;;;;;;;;10201216;28;20072;-67
2022/08/03 14:18:16;;;;;;;6.88;6.20;;;;;;;;;;10220460;28;20513;-66
2022/08/03 14:23:24;;;;;;;8.18;5.82;;;;;;;;;;10208315;28;20064;-67
2022/08/03 14:28:23;;;;;;;6.38;5.75;;;;;;;;;;10216965;28;20532;-67
2022/08/03 14:33:19;;;;;;;6.88;5.43;;;;;;;;;;10218058;28;20053;-66
2022/08/03 14:38:16;;;;;;;6.57;5.90;;;;;;;;;;10219910;28;20536;-66
2022/08/03 14:43:13;;;;;;;6.95;5.70;;;;;;;;;;10212509;28;20506;-67
2022/08/03 14:48:11;;;;;;;8.10;6.05;;;;;;;;;;10208150;28;20038;-66
2022/08/03 14:53:28;;;;;;;6.60;5.90;;;;;;;;;;10212976;28;20059;-66
2022/08/03 14:58:25;;;;;;;6.00;5.50;;;;;;;;;;10203183;28;20057;-67
2022/08/03 15:03:23;;;;;;;9.85;6.28;;;;;;;;;;10215659;28;20774;-66
2022/08/03 15:08:21;;;;;;;6.10;5.50;;;;;;;;;;10210289;28;20037;-67
2022/08/03 15:13:18;;;;;;;7.93;5.90;;;;;;;;;;10222794;28;20120;-66
2022/08/03 15:18:15;;;;;;;7.72;5.28;;;;;;;;;;10211124;28;20044;-66
2022/08/03 15:23:11;;;;;;;7.72;6.22;;;;;;;;;;10199563;28;20493;-66
2022/08/03 15:28:08;;;;;;;6.53;5.82;;;;;;;;;;10219752;28;20078;-67
2022/08/03 15:33:04;;;;;;;7.15;6.32;;;;;;;;;;10210260;28;20494;-66
2022/08/03 15:38:01;;;;;;;8.55;6.75;;;;;;;;;;10250400;28;20103;-67
2022/08/03 15:43:04;;;;;;;7.10;6.13;;;;;;;;;;10208387;28;20050;-67
2022/08/03 15:48:01;;;;;;;8.55;7.72;;;;;;;;;;10236857;28;20050;-66
2022/08/03 15:52:57;;;;;;;7.55;6.82;;;;;;;;;;10205271;28;20068;-66
2022/08/03 15:57:53;;;;;;;9.25;6.68;;;;;;;;;;10211113;28;20147;-67
2022/08/03 16:03:10;;;;;;;8.38;5.70;;;;;;;;;;10199927;28;20640;-66
2022/08/03 16:08:06;;;;;;;6.63;5.53;;;;;;;;;;10215057;28;20057;-67
2022/08/03 16:13:08;;;;;;;8.25;5.63;;;;;;;;;;10209092;28;20049;-66
2022/08/03 16:18:05;;;;;;;7.80;5.88;;;;;;;;;;10209583;28;20073;-66
2022/08/03 16:23:02;;;;;;;7.20;6.50;;;;;;;;;;10212841;28;20536;-69
2022/08/03 16:28:06;;;;;;;6.22;5.70;;;;;;;;;;10203461;28;20042;-69
2022/08/03 16:33:09;;;;;;;8.63;6.68;;;;;;;;;;10204267;28;20080;-68
2022/08/03 16:38:06;;;;;;;6.82;5.93;;;;;;;;;;10206266;28;20100;-69
2022/08/03 16:43:13;;;;;;;7.22;6.53;;;;;;;;;;10204941;28;20056;-69
2022/08/03 16:48:14;;;;;;;8.45;6.28;;;;;;;;;;10206245;28;20041;-68
2022/08/03 16:53:12;;;;;;;7.60;6.90;;;;;;;;;;10207056;28;20114;-69
2022/08/03 16:58:15;;;;;;;9.10;6.00;;;;;;;;;;10203918;28;20076;-67
2022/08/03 17:03:13;;;;;;;8.10;5.78;;;;;;;;;;10190948;28;20042;-67
2022/08/03 17:08:19;;;;;;;7.78;5.70;;;;;;;;;;10195041;28;20045;-67
2022/08/03 17:13:22;;;;;;;7.57;5.45;;;;;;;;;;10202769;28;20478;-67
2022/08/03 17:18:40;;;;;;;8.13;5.65;;;;;;;;;;10206613;28;20081;-67
2022/08/03 17:23:48;;;;;;;5.88;5.28;;;;;;;;;;10208187;28;20042;-67
2022/08/03 17:28:46;;;;;;;7.45;5.13;;;;;;;;;;10212361;28;20133;-67
2022/08/03 17:33:49;;;;;;;7.00;4.85;;;;;;;;;;10212569;28;20474;-67
2022/08/03 17:38:53;;;;;;;8.07;5.43;;;;;;;;;;10202340;28;21481;-67
2022/08/03 17:43:52;;;;;;;7.03;5.13;;;;;;;;;;10210825;28;20046;-67
2022/08/03 17:49:09;;;;;;;7.22;5.22;;;;;;;;;;10205679;28;20157;-67
2022/08/03 17:54:28;;;;;;;7.35;5.47;;;;;;;;;;10203341;28;20058;-67
2022/08/03 17:59:47;;;;;;;6.20;5.60;;;;;;;;;;10212763;28;20096;-67
2022/08/03 18:05:05;;;;;;;6.63;5.90;;;;;;;;;;10196461;28;20054;-67
2022/08/03 18:10:15;;;;;;;8.13;5.10;;;;;;;;;;10218753;28;20073;-67
2022/08/03 18:15:12;;;;;;;9.23;5.22;;;;;;;;;;10203972;28;20061;-67
2022/08/03 18:20:18;;;;;;;9.82;4.82;;;;;;;;;;10214563;28;20124;-67
2022/08/03 18:25:30;;;;;;;7.93;4.57;;;;;;;;;;10223787;28;20049;-67
2022/08/03 18:30:42;;;;;;;8.53;4.80;;;;;;;;;;10210282;28;20496;-67
2022/08/03 18:35:50;;;;;;;13.48;4.53;;;;;;;;;;10215923;28;20440;-67
2022/08/03 18:40:49;;;;;;;7.28;4.43;;;;;;;;;;10214591;28;20141;-67
2022/08/03 18:45:49;;;;;;;9.90;4.63;;;;;;;;;;10222967;28;20053;-67
2022/08/03 18:50:59;;;;;;;5.35;3.08;;;;;;;;;;10219433;28;20056;-67
2022/08/03 18:56:04;;;;;;;8.35;4.53;;;;;;;;;;10218338;28;20071;-67
2022/08/03 19:01:09;;;;;;;8.90;4.90;;;;;;;;;;10214949;28;20046;-66
2022/08/03 19:06:27;;;;;;;10.95;5.07;;;;;;;;;;10212551;28;20051;-66
2022/08/03 19:11:29;;;;;;;8.70;4.57;;;;;;;;;;10219186;28;20452;-67
2022/08/03 19:16:46;;;;;;;12.05;4.90;;;;;;;;;;10204894;28;20051;-66
2022/08/03 19:21:43;;;;;;;12.23;4.43;;;;;;;;;;10218324;28;20100;-66
2022/08/03 19:26:40;;;;;;;11.30;5.05;;;;;;;;;;10216726;28;20072;-67
2022/08/03 19:31:36;;;;;;;10.30;4.78;;;;;;;;;;10216587;28;20041;-66
2022/08/03 19:36:35;;;;;;;13.90;4.97;;;;;;;;;;10215110;28;20042;-66
2022/08/03 19:41:39;;;;;;;14.38;4.35;;;;;;;;;;10210722;28;20038;-66
2022/08/03 19:46:42;;;;;;;10.50;4.10;;;;;;;;;;10212865;28;20049;-67
2022/08/03 19:51:39;;;;;;;10.55;4.38;;;;;;;;;;10212470;28;20042;-66
2022/08/03 19:56:56;;;;;;;8.35;3.10;;;;;;;;;;10211179;28;20049;-66
2022/08/03 20:01:53;;;;;;;13.85;3.53;;;;;;;;;;10205175;28;20054;-66
2022/08/03 20:06:50;;;;;;;10.50;4.10;;;;;;;;;;10214832;28;20041;-66
2022/08/03 20:11:47;;;;;;;8.73;3.25;;;;;;;;;;10218673;28;20080;-66
2022/08/03 20:16:44;;;;;;;15.75;4.55;;;;;;;;;;10214067;28;20461;-66
2022/08/03 20:21:45;;;;;;;12.73;3.53;;;;;;;;;;10204894;28;20881;-66
2022/08/03 20:26:46;;;;;;;14.35;3.95;;;;;;;;;;10201826;28;20046;-65
2022/08/03 20:31:46;;;;;;;8.82;2.17;;;;;;;;;;10206459;28;20505;-67
2022/08/03 20:36:44;;;;;;;12.30;2.33;;;;;;;;;;10202487;28;20072;-66
2022/08/03 20:41:42;;;;;;;7.95;2.75;;;;;;;;;;10196238;28;20509;-67
2022/08/03 20:46:38;;;;;;;9.27;2.88;;;;;;;;;;10201046;28;20042;-66
2022/08/03 20:51:54;;;;;;;11.88;2.42;;;;;;;;;;10198765;28;20141;-65
2022/08/03 20:56:51;;;;;;;12.05;2.97;;;;;;;;;;10199064;28;20069;-65
2022/08/03 21:01:48;;;;;;;14.65;3.67;;;;;;;;;;10204079;28;20417;-65
2022/08/03 21:06:47;;;;;;;9.68;2.30;;;;;;;;;;10219857;28;20080;-66
2022/08/03 21:11:50;;;;;;;12.65;2.80;;;;;;;;;;10214320;28;20046;-66
2022/08/03 21:16:48;;;;;;;9.45;2.67;;;;;;;;;;10206288;28;20041;-66
2022/08/03 21:21:46;;;;;;;11.82;3.78;;;;;;;;;;10209078;28;20045;-67
2022/08/03 21:26:44;;;;;;;11.40;3.55;;;;;;;;;;10199659;28;20038;-67
2022/08/03 21:31:42;;;;;;;15.32;4.50;;;;;;;;;;10218555;28;20042;-67
2022/08/03 21:36:38;;;;;;;8.73;2.70;;;;;;;;;;10214425;28;20193;-67
2022/08/03 21:41:38;;;;;;;5.82;2.17;;;;;;;;;;10207216;28;20080;-68
2022/08/03 21:46:36;;;;;;;6.07;2.05;;;;;;;;;;10211190;28;20128;-68
2022/08/03 21:51:33;;;;;;;8.45;2.90;;;;;;;;;;10210092;28;20093;-67
2022/08/03 21:56:33;;;;;;;6.78;2.47;;;;;;;;;;10218219;28;20091;-67
2022/08/03 22:01:30;;;;;;;11.68;2.83;;;;;;;;;;10219559;28;20145;-68
2022/08/03 22:06:31;;;;;;;8.27;2.00;;;;;;;;;;10219633;28;20448;-68
2022/08/03 22:11:27;;;;;;;10.57;2.42;;;;;;;;;;10214333;28;20076;-68
2022/08/03 22:16:24;;;;;;;11.77;2.30;;;;;;;;;;10211200;28;20152;-68
2022/08/03 22:21:20;;;;;;;8.10;2.20;;;;;;;;;;10221205;28;20085;-68
2022/08/03 22:26:31;;;;;;;6.72;2.17;;;;;;;;;;10215435;28;20048;-68
2022/08/03 22:31:30;;;;;;;8.20;2.38;;;;;;;;;;10222944;28;20045;-68
2022/08/03 22:36:47;;;;;;;7.57;2.75;;;;;;;;;;10218491;28;20058;-67
2022/08/03 22:41:43;;;;;;;8.48;2.40;;;;;;;;;;10218739;28;20119;-67
2022/08/03 22:46:40;;;;;;;8.05;2.60;;;;;;;;;;10225487;28;20244;-65
2022/08/03 22:51:39;;;;;;;10.38;2.53;;;;;;;;;;10214499;28;20144;-66
2022/08/03 22:56:36;;;;;;;12.90;3.10;;;;;;;;;;10220970;28;20091;-66
2022/08/03 23:01:38;;;;;;;8.88;2.30;;;;;;;;;;10224384;28;20111;-67
2022/08/03 23:06:35;;;;;;;8.77;1.83;;;;;;;;;;10208874;28;20128;-67
2022/08/03 23:11:34;;;;;;;10.30;2.30;;;;;;;;;;10218898;28;20057;-65
2022/08/03 23:16:36;;;;;;;12.82;2.67;;;;;;;;;;10208969;28;20038;-66
2022/08/03 23:21:32;;;;;;;13.88;2.63;;;;;;;;;;10223789;28;20566;-66
2022/08/03 23:26:49;;;;;;;6.32;2.17;;;;;;;;;;10210668;28;20136;-66
2022/08/03 23:31:46;;;;;;;8.70;2.72;;;;;;;;;;10213095;28;20048;-66
2022/08/03 23:36:47;;;;;;;6.72;2.35;;;;;;;;;;10212961;28;20501;-66
2022/08/03 23:41:44;;;;;;;10.75;2.60;;;;;;;;;;10213408;28;20132;-67
2022/08/03 23:46:42;;;;;;;11.38;3.08;;;;;;;;;;10215360;28;20061;-66
2022/08/03 23:51:57;;;;;;;7.82;2.30;;;;;;;;;;10212166;28;20132;-66
2022/08/03 23:57:02;;;;;;;11.35;2.80;;;;;;;;;;10202649;28;20107;-66
